createdAt,value
2024-02-07T00:02:03.069Z,99445.72
2024-02-07T00:04:29.929Z,99416.19
2024-02-07T00:06:56.766Z,99420.06
2024-02-07T00:09:23.510Z,99413.84
2024-02-07T00:11:50.205Z,99425.66
2024-02-07T00:14:18.165Z,99399.84
2024-02-07T00:16:44.825Z,99407.78
2024-02-07T00:19:11.592Z,99395.47
2024-02-07T00:21:38.334Z,99406.09
2024-02-07T00:24:06.263Z,99401.72
2024-02-07T00:26:32.886Z,99406.28
2024-02-07T00:28:59.558Z,99390.25
2024-02-07T00:31:28.004Z,99403.56
2024-02-07T00:33:54.688Z,99380.09
2024-02-07T00:36:21.399Z,99374.91
2024-02-07T00:38:48.091Z,99392.75
2024-02-07T00:41:21.758Z,99397.16
2024-02-07T00:43:48.582Z,99373.00
2024-02-07T00:46:15.353Z,99380.94
2024-02-07T00:48:43.424Z,99393.44
2024-02-07T00:51:10.434Z,99353.91
2024-02-07T00:53:37.507Z,99435.84
2024-02-07T00:56:04.693Z,99454.75
2024-02-07T00:58:31.625Z,99480.09
2024-02-07T01:00:58.554Z,99492.34
2024-02-07T01:03:25.287Z,99476.09
2024-02-07T01:05:53.681Z,99485.19
2024-02-07T01:08:21.531Z,99489.97
2024-02-07T01:10:48.383Z,99504.94
2024-02-07T01:13:15.101Z,99508.53
2024-02-07T01:15:42.050Z,99511.75
2024-02-07T01:18:08.697Z,99512.28
2024-02-07T01:20:35.762Z,99500.53
2024-02-07T01:23:04.133Z,99498.38
2024-02-07T01:25:30.869Z,99512.56
2024-02-07T01:27:57.493Z,99511.59
2024-02-07T01:30:24.115Z,99527.63
2024-02-07T01:32:50.898Z,99529.16
2024-02-07T01:35:17.691Z,99530.22
2024-02-07T01:37:44.657Z,99541.72
2024-02-07T01:40:14.159Z,99533.31
2024-02-07T01:42:42.311Z,99534.50
2024-02-07T01:45:22.983Z,99531.97
2024-02-07T01:47:50.365Z,99531.66
2024-02-07T01:50:17.391Z,99545.50
2024-02-07T01:52:45.360Z,99541.47
2024-02-07T01:55:14.660Z,99550.91
2024-02-07T01:57:42.116Z,99550.38
2024-02-07T02:00:10.361Z,99548.91
2024-02-07T02:02:37.136Z,99550.28
2024-02-07T02:05:04.313Z,99550.28
2024-02-07T02:07:31.633Z,99548.22
2024-02-07T02:09:58.348Z,99552.44
2024-02-07T02:12:27.381Z,99555.13
2024-02-07T02:14:54.252Z,99546.06
2024-02-07T02:17:21.024Z,99545.88
2024-02-07T02:19:47.781Z,99545.72
2024-02-07T02:22:34.640Z,99554.94
2024-02-07T02:25:26.935Z,99555.63
2024-02-07T02:28:02.412Z,99550.06
2024-02-07T02:30:32.093Z,99554.94
2024-02-07T02:32:59.662Z,99557.28
2024-02-07T02:35:26.851Z,99552.25
2024-02-07T02:37:53.536Z,99555.25
2024-02-07T02:40:20.343Z,99559.97
2024-02-07T02:42:47.039Z,99564.66
2024-02-07T02:45:13.916Z,99548.84
2024-02-07T02:47:41.898Z,99553.56
2024-02-07T02:50:09.479Z,99564.63
2024-02-07T02:52:36.155Z,99555.91
2024-02-07T02:55:02.792Z,99563.28
2024-02-07T02:57:29.509Z,99565.59
2024-02-07T02:59:56.176Z,99572.31
2024-02-07T03:02:22.860Z,99575.34
2024-02-07T03:04:51.069Z,99583.06
2024-02-07T03:07:17.928Z,99593.31
2024-02-07T03:09:47.490Z,99585.34
2024-02-07T03:12:14.243Z,99585.66
2024-02-07T03:14:40.883Z,99598.22
2024-02-07T03:17:07.493Z,99601.00
2024-02-07T03:19:34.131Z,99616.09
2024-02-07T03:22:02.165Z,99609.63
2024-02-07T03:24:28.763Z,99614.13
2024-02-07T03:26:55.500Z,99621.66
2024-02-07T03:29:22.285Z,99607.16
2024-02-07T03:31:48.995Z,99613.81
2024-02-07T03:34:15.813Z,99598.22
2024-02-07T03:36:42.536Z,99596.00
2024-02-07T03:39:10.508Z,99591.22
2024-02-07T03:41:37.098Z,99593.53
2024-02-07T03:44:03.966Z,99594.69
2024-02-07T03:46:30.662Z,99596.84
2024-02-07T03:48:57.386Z,99595.16
2024-02-07T03:51:24.249Z,99594.47
2024-02-07T03:53:51.057Z,99599.31
2024-02-07T03:56:19.078Z,99601.31
2024-02-07T03:58:45.766Z,99599.91
2024-02-07T04:01:12.503Z,99597.41
2024-02-07T04:03:39.122Z,99611.28
2024-02-07T04:06:06.060Z,99607.38
2024-02-07T04:08:33.727Z,99615.84
2024-02-07T04:11:02.628Z,99612.47
2024-02-07T04:13:30.710Z,99609.94
2024-02-07T04:15:57.582Z,99611.25
2024-02-07T04:18:24.257Z,99610.53
2024-02-07T04:20:52.267Z,99613.41
2024-02-07T04:23:18.898Z,99613.66
2024-02-07T04:25:45.633Z,99616.53
2024-02-07T04:28:12.314Z,99620.19
2024-02-07T04:30:40.307Z,99621.50
2024-02-07T04:33:07.012Z,99619.13
2024-02-07T04:35:33.694Z,99602.63
2024-02-07T04:38:00.351Z,99615.34
2024-02-07T04:40:27.060Z,99605.91
2024-02-07T04:42:54.076Z,99604.22
2024-02-07T04:45:20.686Z,99609.59
2024-02-07T04:47:48.726Z,99602.56
2024-02-07T04:50:15.619Z,99598.31
2024-02-07T04:52:42.984Z,99602.00
2024-02-07T04:55:09.645Z,99611.91
2024-02-07T04:57:36.456Z,99618.94
2024-02-07T05:00:03.467Z,99621.78
2024-02-07T05:02:30.178Z,99616.88
2024-02-07T05:04:58.289Z,99606.28
2024-02-07T05:07:25.005Z,99603.59
2024-02-07T05:09:51.849Z,99581.28
2024-02-07T05:12:18.423Z,99597.25
2024-02-07T05:14:45.021Z,99598.09
2024-02-07T05:17:11.626Z,99590.03
2024-02-07T05:19:38.484Z,99582.28
2024-02-07T05:22:06.729Z,99579.31
2024-02-07T05:24:33.309Z,99588.34
2024-02-07T05:27:00.036Z,99591.03
2024-02-07T05:29:26.656Z,99586.53
2024-02-07T05:31:55.527Z,99596.72
2024-02-07T05:34:23.378Z,99599.38
2024-02-07T05:36:50.099Z,99604.75
2024-02-07T05:39:18.327Z,99613.47
2024-02-07T05:41:45.074Z,99607.97
2024-02-07T05:44:11.747Z,99600.25
2024-02-07T05:46:38.756Z,99624.38
2024-02-07T05:49:05.973Z,99628.88
2024-02-07T05:51:32.651Z,99627.19
2024-02-07T05:53:59.471Z,99618.44
2024-02-07T05:56:27.458Z,99618.44
2024-02-07T05:58:54.130Z,99623.13
2024-02-07T06:01:20.956Z,99636.66
2024-02-07T06:03:47.627Z,99616.50
2024-02-07T06:06:14.401Z,99617.34
2024-02-07T06:08:40.990Z,99620.75
2024-02-07T06:11:07.627Z,99626.91
2024-02-07T06:13:39.001Z,99629.78
2024-02-07T06:16:05.921Z,99624.41
2024-02-07T06:18:32.624Z,99624.69
2024-02-07T06:20:59.373Z,99626.69
2024-02-07T06:23:25.972Z,99633.75
2024-02-07T06:25:52.798Z,99630.03
2024-02-07T06:28:19.643Z,99635.28
2024-02-07T06:30:49.079Z,99632.44
2024-02-07T06:33:15.781Z,99631.75
2024-02-07T06:35:43.595Z,99631.75
2024-02-07T06:38:10.265Z,99624.41
2024-02-07T06:40:37.072Z,99635.97
2024-02-07T06:43:04.021Z,99639.66
2024-02-07T06:45:30.748Z,99642.19
2024-02-07T06:47:58.744Z,99642.19
2024-02-07T06:50:25.789Z,99642.03
2024-02-07T06:52:52.598Z,99643.59
2024-02-07T06:55:19.271Z,99650.78
2024-02-07T06:57:46.125Z,99661.34
2024-02-07T07:00:14.044Z,99652.63
2024-02-07T07:02:40.987Z,99662.50
2024-02-07T07:05:09.744Z,99663.34
2024-02-07T07:07:36.548Z,99672.06
2024-02-07T07:10:03.688Z,99664.00
2024-02-07T07:12:30.275Z,99666.56
2024-02-07T07:14:56.934Z,99668.38
2024-02-07T07:17:23.744Z,99679.97
2024-02-07T07:19:50.592Z,99669.25
2024-02-07T07:22:18.819Z,99672.78
2024-02-07T07:24:45.423Z,99679.13
2024-02-07T07:27:12.229Z,99682.66
2024-02-07T07:29:38.868Z,99681.50
2024-02-07T07:32:05.872Z,99685.88
2024-02-07T07:34:32.557Z,99685.88
2024-02-07T07:36:59.425Z,99690.25
2024-02-07T07:39:27.449Z,99684.75
2024-02-07T07:41:54.117Z,99693.47
2024-02-07T07:44:20.770Z,99688.97
2024-02-07T07:46:47.412Z,99688.28
2024-02-07T07:49:14.349Z,99683.72
2024-02-07T07:51:41.117Z,99688.09
2024-02-07T07:54:08.058Z,99688.97
2024-02-07T07:56:36.208Z,99698.69
2024-02-07T07:59:03.239Z,99696.69
2024-02-07T08:01:30.056Z,99698.25
2024-02-07T08:03:56.822Z,99706.00
2024-02-07T08:06:23.870Z,99717.44
2024-02-07T08:08:51.040Z,99709.22
2024-02-07T08:11:17.712Z,99727.00
2024-02-07T08:13:46.005Z,99727.56
2024-02-07T08:16:12.859Z,99724.72
2024-02-07T08:18:39.607Z,99721.75
2024-02-07T08:21:06.317Z,99730.66
2024-02-07T08:23:32.936Z,99722.44
2024-02-07T08:25:59.703Z,99735.44
2024-02-07T08:28:26.572Z,99739.63
2024-02-07T08:30:54.537Z,99739.63
2024-02-07T08:33:21.410Z,99739.31
2024-02-07T08:35:49.015Z,99741.88
2024-02-07T08:38:15.922Z,99735.34
2024-02-07T08:40:42.779Z,99738.59
2024-02-07T08:43:09.519Z,99744.66
2024-02-07T08:45:36.486Z,99744.50
2024-02-07T08:48:05.881Z,99747.63
2024-02-07T08:50:32.635Z,99756.34
2024-02-07T08:52:59.287Z,99768.78
2024-02-07T08:55:26.001Z,99768.78
2024-02-07T08:57:52.655Z,99764.28
2024-02-07T09:00:19.419Z,99757.06
2024-02-07T09:02:46.227Z,99765.78
2024-02-07T09:05:14.434Z,99760.16
2024-02-07T09:07:41.266Z,99762.38
2024-02-07T09:10:08.444Z,99761.09
2024-02-07T09:12:35.033Z,99768.97
2024-02-07T09:15:01.864Z,99770.66
2024-02-07T09:17:28.533Z,99782.13
2024-02-07T09:19:55.201Z,99769.38
2024-02-07T09:22:23.294Z,99776.44
2024-02-07T09:24:49.984Z,99784.19
2024-02-07T09:27:16.684Z,99786.88
2024-02-07T09:29:43.314Z,99793.09
2024-02-07T09:32:10.053Z,99792.25
2024-02-07T09:34:36.776Z,99791.25
2024-02-07T09:37:03.837Z,99806.38
2024-02-07T09:39:31.743Z,99811.75
2024-02-07T09:42:02.407Z,99815.41
2024-02-07T09:44:31.794Z,99822.19
2024-02-07T09:47:01.575Z,99821.19
2024-02-07T09:49:29.271Z,99824.72
2024-02-07T09:51:57.249Z,99816.34
2024-02-07T09:54:25.488Z,99819.03
2024-02-07T09:56:53.973Z,99818.72
2024-02-07T09:59:21.521Z,99833.00
2024-02-07T10:01:48.441Z,99837.69
2024-02-07T10:04:18.418Z,99853.09
2024-02-07T10:06:46.506Z,99842.38
2024-02-07T10:09:13.772Z,99841.38
2024-02-07T10:11:41.662Z,99848.13
2024-02-07T10:14:11.205Z,99855.75
2024-02-07T10:16:37.847Z,99853.47
2024-02-07T10:19:04.907Z,99853.09
2024-02-07T10:21:34.645Z,99850.56
2024-02-07T10:24:01.519Z,99855.09
2024-02-07T10:26:28.239Z,99855.25
2024-02-07T10:28:59.113Z,99856.00
2024-02-07T10:31:27.323Z,99859.41
2024-02-07T10:33:54.249Z,99864.09
2024-02-07T10:36:23.350Z,99869.59
2024-02-07T10:38:51.845Z,99870.91
2024-02-07T10:41:18.648Z,99885.53
2024-02-07T10:43:45.345Z,99888.75
2024-02-07T10:46:12.570Z,99896.81
2024-02-07T10:48:42.194Z,99886.69
2024-02-07T10:51:09.089Z,99889.53
2024-02-07T10:53:37.225Z,99898.59
2024-02-07T10:56:05.015Z,99904.28
2024-02-07T10:58:32.231Z,99900.22
2024-02-07T11:00:59.428Z,99901.50
2024-02-07T11:03:27.392Z,99898.13
2024-02-07T11:05:55.831Z,99904.88
2024-02-07T11:08:22.684Z,99892.16
2024-02-07T11:10:49.858Z,99893.53
2024-02-07T11:13:16.897Z,99883.16
2024-02-07T11:15:43.626Z,99886.06
2024-02-07T11:18:12.654Z,99896.81
2024-02-07T11:20:40.175Z,99889.13
2024-02-07T11:23:14.022Z,99893.91
2024-02-07T11:25:43.262Z,99899.50
2024-02-07T11:28:12.983Z,99896.50
2024-02-07T11:30:40.770Z,99888.34
2024-02-07T11:33:10.988Z,99892.78
2024-02-07T11:35:37.942Z,99891.06
2024-02-07T11:38:04.980Z,99890.16
2024-02-07T11:40:39.686Z,99896.81
2024-02-07T11:43:06.434Z,99902.09
2024-02-07T11:45:37.200Z,99894.69
2024-02-07T11:48:04.392Z,99903.78
2024-02-07T11:50:35.340Z,99902.22
2024-02-07T11:53:03.501Z,99906.03
2024-02-07T11:55:41.433Z,99887.94
2024-02-07T11:58:09.073Z,99912.19
2024-02-07T12:00:35.967Z,99916.91
2024-02-07T12:03:03.068Z,99910.13
2024-02-07T12:05:29.897Z,99910.13
2024-02-07T12:07:56.847Z,99921.38
2024-02-07T12:10:24.676Z,99919.69
2024-02-07T12:12:52.840Z,99919.69
2024-02-07T12:15:19.616Z,99922.03
2024-02-07T12:17:47.435Z,99922.44
2024-02-07T12:20:14.618Z,99932.19
2024-02-07T12:22:41.554Z,99927.13
2024-02-07T12:25:15.376Z,99931.16
2024-02-07T12:27:42.257Z,99937.81
2024-02-07T12:30:11.766Z,99933.47
2024-02-07T12:32:39.976Z,99943.38
2024-02-07T12:35:08.145Z,99936.44
2024-02-07T12:37:34.910Z,99935.44
2024-02-07T12:40:02.082Z,99947.06
2024-02-07T12:42:29.337Z,99939.44
2024-02-07T12:44:55.965Z,99947.00
2024-02-07T12:47:24.791Z,99950.38
2024-02-07T12:49:52.687Z,99951.06
2024-02-07T12:52:21.380Z,99946.00
2024-02-07T12:54:48.601Z,99952.25
2024-02-07T12:57:22.029Z,99952.25
2024-02-07T12:59:48.707Z,99951.22
2024-02-07T13:02:16.092Z,99951.91
2024-02-07T13:04:44.446Z,99949.22
2024-02-07T13:07:11.829Z,99959.81
2024-02-07T13:09:39.615Z,99955.59
2024-02-07T13:12:14.336Z,99965.19
2024-02-07T13:14:50.104Z,99968.59
2024-02-07T13:17:16.700Z,99972.00
2024-02-07T13:19:45.176Z,99972.47
2024-02-07T13:22:12.075Z,99972.91
2024-02-07T13:24:38.676Z,99979.44
2024-02-07T13:27:05.800Z,99987.13
2024-02-07T13:29:32.484Z,99989.13
2024-02-07T13:31:59.147Z,100001.34
2024-02-07T13:34:25.926Z,99997.41
2024-02-07T13:36:54.006Z,100006.53
2024-02-07T13:39:20.656Z,99998.44
2024-02-07T13:41:47.983Z,100003.97
2024-02-07T13:44:14.554Z,100011.31
2024-02-07T13:46:41.299Z,100013.19
2024-02-07T13:49:07.966Z,100010.78
2024-02-07T13:51:34.860Z,100012.81
2024-02-07T13:54:03.161Z,100019.31
2024-02-07T13:56:29.801Z,100027.56
2024-02-07T13:58:56.474Z,100018.78
2024-02-07T14:01:23.232Z,100032.69
2024-02-07T14:03:49.919Z,100024.78
2024-02-07T14:06:16.611Z,100031.81
2024-02-07T14:08:43.314Z,100033.97
2024-02-07T14:11:11.732Z,100032.44
2024-02-07T14:13:38.540Z,100039.66
2024-02-07T14:16:05.531Z,100038.69
2024-02-07T14:18:32.133Z,100036.13
2024-02-07T14:20:58.738Z,100039.25
2024-02-07T14:23:25.343Z,100048.19
2024-02-07T14:25:52.020Z,100036.25
2024-02-07T14:28:20.157Z,100035.41
2024-02-07T14:30:46.901Z,100044.34
2024-02-07T14:33:13.827Z,100040.13
2024-02-07T14:35:40.672Z,100040.44
2024-02-07T14:38:07.400Z,100040.69
2024-02-07T14:40:34.093Z,100037.34
2024-02-07T14:43:00.753Z,100036.47
2024-02-07T14:45:28.853Z,100040.03
2024-02-07T14:47:55.578Z,100048.78
2024-02-07T14:50:22.495Z,100038.88
2024-02-07T14:52:49.405Z,100037.16
2024-02-07T14:55:16.117Z,100042.84
2024-02-07T14:57:42.809Z,100041.31
2024-02-07T15:00:10.168Z,100046.84
2024-02-07T15:02:38.117Z,100046.13
2024-02-07T15:05:05.317Z,100040.38
2024-02-07T15:07:31.984Z,100052.25
2024-02-07T15:09:58.671Z,100042.91
2024-02-07T15:12:25.264Z,100051.47
2024-02-07T15:14:51.951Z,100057.09
2024-02-07T15:17:18.635Z,100053.31
2024-02-07T15:19:46.712Z,100055.59
2024-02-07T15:22:13.381Z,100054.50
2024-02-07T15:24:40.065Z,100059.28
2024-02-07T15:27:06.669Z,100067.78
2024-02-07T15:29:33.348Z,100064.53
2024-02-07T15:32:00.166Z,100065.69
2024-02-07T15:34:27.001Z,100062.47
2024-02-07T15:36:55.281Z,100060.03
2024-02-07T15:39:21.910Z,100067.53
2024-02-07T15:41:48.608Z,100073.22
2024-02-07T15:44:15.232Z,100062.75
2024-02-07T15:46:41.930Z,100072.91
2024-02-07T15:49:10.026Z,100084.81
2024-02-07T15:51:37.136Z,100080.41
2024-02-07T15:54:05.294Z,100081.69
2024-02-07T15:56:32.217Z,100084.69
2024-02-07T15:58:58.981Z,100086.94
2024-02-07T16:01:36.341Z,100089.19
2024-02-07T16:04:08.319Z,100086.09
2024-02-07T16:06:35.486Z,100084.81
2024-02-07T16:09:02.626Z,100093.09
2024-02-07T16:11:30.623Z,100101.44
2024-02-07T16:13:57.453Z,100097.66
2024-02-07T16:16:24.182Z,100105.81
2024-02-07T16:18:50.816Z,100100.03
2024-02-07T16:21:17.556Z,100110.06
2024-02-07T16:23:44.167Z,100110.31
2024-02-07T16:26:10.789Z,100116.94
2024-02-07T16:28:38.971Z,100115.53
2024-02-07T16:31:07.215Z,100108.75
2024-02-07T16:33:33.916Z,100114.53
2024-02-07T16:36:00.773Z,100125.41
2024-02-07T16:38:27.457Z,100121.16
2024-02-07T16:40:54.180Z,100129.31
2024-02-07T16:43:20.826Z,100134.97
2024-02-07T16:45:48.908Z,100136.94
2024-02-07T16:48:15.711Z,100149.63
2024-02-07T16:50:42.695Z,100141.88
2024-02-07T16:53:09.365Z,100151.00
2024-02-07T16:55:36.064Z,100152.16
2024-02-07T16:58:02.794Z,100150.59
2024-02-07T17:00:29.492Z,100150.00
2024-02-07T17:02:57.494Z,100151.97
2024-02-07T17:05:24.305Z,100147.72
2024-02-07T17:07:50.976Z,100156.88
2024-02-07T17:10:18.148Z,100153.47
2024-02-07T17:12:45.065Z,100158.41
2024-02-07T17:15:11.681Z,100154.28
2024-02-07T17:17:38.405Z,100157.25
2024-02-07T17:20:07.719Z,100153.97
2024-02-07T17:22:34.364Z,100157.78
2024-02-07T17:25:01.392Z,100172.16
2024-02-07T17:27:28.137Z,100166.06
2024-02-07T17:29:58.618Z,100167.19
2024-02-07T17:32:29.886Z,100168.28
2024-02-07T17:34:56.559Z,100171.97
2024-02-07T17:37:24.752Z,100177.59
2024-02-07T17:39:51.460Z,100179.56
2024-02-07T17:42:21.749Z,100186.88
2024-02-07T17:44:49.848Z,100180.81
2024-02-07T17:47:16.478Z,100185.44
2024-02-07T17:49:44.434Z,100179.38
2024-02-07T17:52:11.137Z,100178.63
2024-02-07T17:54:39.149Z,100186.81
2024-02-07T17:57:05.740Z,100182.56
2024-02-07T17:59:32.406Z,100186.22
2024-02-07T18:01:59.093Z,100191.84
2024-02-07T18:04:25.895Z,100180.53
2024-02-07T18:06:52.640Z,100181.50
2024-02-07T18:09:19.234Z,100183.50
2024-02-07T18:11:47.336Z,100180.09
2024-02-07T18:14:14.044Z,100180.19
2024-02-07T18:16:40.805Z,100183.03
2024-02-07T18:19:07.481Z,100183.03
2024-02-07T18:21:34.139Z,100180.47
2024-02-07T18:24:00.771Z,100181.44
2024-02-07T18:26:27.317Z,100187.78
2024-02-07T18:28:55.606Z,100192.31
2024-02-07T18:31:23.438Z,100184.38
2024-02-07T18:33:51.709Z,100184.38
2024-02-07T18:36:18.321Z,100188.03
2024-02-07T18:38:44.953Z,100189.84
2024-02-07T18:41:11.828Z,100185.63
2024-02-07T18:43:38.518Z,100191.09
2024-02-07T18:46:06.518Z,100188.56
2024-02-07T18:48:33.360Z,100185.16
2024-02-07T18:51:00.139Z,100186.13
2024-02-07T18:53:26.770Z,100183.59
2024-02-07T18:55:53.437Z,100184.56
2024-02-07T18:58:20.137Z,100174.94
2024-02-07T19:00:46.780Z,100177.63
2024-02-07T19:03:14.774Z,100176.94
2024-02-07T19:05:41.726Z,100176.06
2024-02-07T19:08:08.585Z,100179.59
2024-02-07T19:10:35.278Z,100182.28
2024-02-07T19:13:03.202Z,100192.25
2024-02-07T19:15:29.837Z,100183.41
2024-02-07T19:17:56.640Z,100189.84
2024-02-07T19:20:25.125Z,100194.47
2024-02-07T19:22:51.922Z,100195.44
2024-02-07T19:25:18.645Z,100199.09
2024-02-07T19:27:45.285Z,100205.56
2024-02-07T19:30:13.087Z,100204.94
2024-02-07T19:32:39.719Z,100200.72
2024-02-07T19:35:07.616Z,100200.13
2024-02-07T19:37:35.736Z,100199.38
2024-02-07T19:40:02.609Z,100204.03
2024-02-07T19:42:29.320Z,100203.44
2024-02-07T19:44:56.225Z,100208.16
2024-02-07T19:47:22.926Z,100206.59
2024-02-07T19:49:49.602Z,100214.75
2024-02-07T19:52:16.361Z,100211.47
2024-02-07T19:54:44.472Z,100212.59
2024-02-07T19:57:11.146Z,100205.78
2024-02-07T19:59:37.794Z,100205.03
2024-02-07T20:02:04.817Z,100207.00
2024-02-07T20:04:31.508Z,100207.97
2024-02-07T20:06:58.166Z,100208.22
2024-02-07T20:09:24.800Z,100206.53
2024-02-07T20:11:52.847Z,100199.47
2024-02-07T20:14:19.451Z,100202.41
2024-02-07T20:16:46.174Z,100202.63
2024-02-07T20:19:12.997Z,100201.06
2024-02-07T20:21:39.711Z,100201.31
2024-02-07T20:24:06.826Z,100199.63
2024-02-07T20:26:33.559Z,100198.88
2024-02-07T20:29:01.505Z,100192.81
2024-02-07T20:31:28.182Z,100195.59
2024-02-07T20:33:55.162Z,100200.25
2024-02-07T20:36:21.824Z,100195.97
2024-02-07T20:38:48.893Z,100197.94
2024-02-07T20:41:15.632Z,100197.19
2024-02-07T20:43:42.259Z,100188.56
2024-02-07T20:46:10.456Z,100195.84
2024-02-07T20:48:39.936Z,100189.81
2024-02-07T20:51:08.987Z,100186.28
2024-02-07T20:53:35.624Z,100191.72
2024-02-07T20:56:02.375Z,100188.34
2024-02-07T20:58:29.043Z,100183.22
2024-02-07T21:00:55.707Z,100187.84
2024-02-07T21:03:23.779Z,100179.25
2024-02-07T21:05:50.421Z,100180.31
2024-02-07T21:08:17.052Z,100188.47
2024-02-07T21:10:43.823Z,100186.75
2024-02-07T21:13:10.565Z,100187.72
2024-02-07T21:15:37.225Z,100189.69
2024-02-07T21:18:04.430Z,100197.81
2024-02-07T21:20:32.431Z,100199.75
2024-02-07T21:22:59.482Z,100194.66
2024-02-07T21:25:26.163Z,100189.41
2024-02-07T21:27:52.822Z,100193.09
2024-02-07T21:30:19.493Z,100190.53
2024-02-07T21:32:46.195Z,100185.19
2024-02-07T21:35:13.011Z,100189.81
2024-02-07T21:37:41.156Z,100190.88
2024-02-07T21:40:08.724Z,100185.66
2024-02-07T21:42:35.361Z,100191.97
2024-02-07T21:45:04.036Z,100189.53
2024-02-07T21:47:31.194Z,100193.31
2024-02-07T21:49:58.085Z,100184.69
2024-02-07T21:52:24.797Z,100195.59
2024-02-07T21:54:52.821Z,100192.31
2024-02-07T21:57:19.405Z,100190.75
2024-02-07T21:59:46.061Z,100192.66
2024-02-07T22:02:12.809Z,100191.94
2024-02-07T22:04:39.589Z,100188.53
2024-02-07T22:07:06.380Z,100194.00
2024-02-07T22:09:33.059Z,100186.09
2024-02-07T22:12:02.158Z,100193.38
2024-02-07T22:14:29.812Z,100194.47
2024-02-07T22:16:56.639Z,100190.22
2024-02-07T22:19:23.407Z,100189.59
2024-02-07T22:21:50.145Z,100188.88
2024-02-07T22:24:16.744Z,100188.25
2024-02-07T22:26:43.612Z,100189.31
2024-02-07T22:29:11.658Z,100186.91
2024-02-07T22:31:38.403Z,100187.16
2024-02-07T22:34:05.402Z,100180.22
2024-02-07T22:36:32.060Z,100175.00
2024-02-07T22:38:58.785Z,100180.44
2024-02-07T22:41:25.539Z,100170.03
2024-02-07T22:43:52.201Z,100169.28
2024-02-07T22:46:20.234Z,100165.03
2024-02-07T22:48:47.092Z,100164.28
2024-02-07T22:51:14.319Z,100164.38
2024-02-07T22:53:41.141Z,100161.00
2024-02-07T22:56:08.013Z,100156.75
2024-02-07T22:58:34.676Z,100160.59
2024-02-07T23:01:01.413Z,100155.50
2024-02-07T23:03:29.512Z,100163.84
2024-02-07T23:05:56.273Z,100165.91
2024-02-07T23:08:23.184Z,100170.50
2024-02-07T23:10:49.966Z,100174.25
2024-02-07T23:13:16.681Z,100171.81
2024-02-07T23:15:43.345Z,100171.22
2024-02-07T23:18:10.055Z,100171.41
2024-02-07T23:20:38.208Z,100178.69
2024-02-07T23:23:05.010Z,100174.41
2024-02-07T23:25:31.685Z,100171.03
2024-02-07T23:27:58.302Z,100174.88
2024-02-07T23:30:24.909Z,100173.41
2024-02-07T23:32:51.578Z,100179.81
2024-02-07T23:35:18.271Z,100187.09
2024-02-07T23:37:46.997Z,100192.63
2024-02-07T23:40:14.118Z,100191.13
2024-02-07T23:42:40.755Z,100191.38
2024-02-07T23:45:07.901Z,100197.78
2024-02-07T23:47:34.559Z,100191.81
2024-02-07T23:50:01.258Z,100180.44
2024-02-07T23:52:28.042Z,100186.00
2024-02-07T23:54:56.140Z,100190.66
2024-02-07T23:57:22.847Z,100184.72
2024-02-07T23:59:49.478Z,100190.28
